APL New York — 9V9916 — position and weather

sailwx.info

Track history (hours):
 
Tides and Currents Weather Stations Pressure Air Temp Water Temp Dewpoint Dewpoint Depression Visibility Wind Speed Wind Dir Waves Ship Positions

APL New York

Last reported at 2018-May-26 14:00 UTC. Time now 2018-May-26 14:00 UTC.
Position N 01°16' E 103°47'.

Length 328 m; draft 13.1 m.

Type: Ship (hazmat cat A). MMSI: 566879000.

Date/timePositionNaut miles runAvg speedWind from/ knotsBaromVisibWave heightAir tempDewpointWater temp
2018-May-26 14:00N 01°16' E 103°47'0 0.0
2018-May-26 13:30N 01°16' E 103°47'0 0.0
2018-May-26 12:57N 01°16' E 103°47'0 0.0
2018-May-26 12:27N 01°16' E 103°47'0 0.0
2018-May-26 11:57N 01°16' E 103°47'0 0.0
2018-May-26 11:28N 01°16' E 103°47'0 0.0
2018-May-26 10:57N 01°16' E 103°47'0 0.0
2018-May-26 10:27N 01°16' E 103°47'0 0.0
2018-May-26 09:57N 01°16' E 103°47'0 0.0
2018-May-26 09:27N 01°16' E 103°47'0 0.0
2018-May-26 08:57N 01°16' E 103°47'0 0.0
2018-May-26 08:30N 01°16' E 103°47'0 0.0
2018-May-26 07:54N 01°16' E 103°47'0 0.0
2018-May-26 07:27N 01°16' E 103°47'0 0.0
2018-May-26 06:58N 01°16' E 103°47'0 0.0
2018-May-26 06:13N 01°16' E 103°47'0 0.0
2018-May-26 05:28N 01°16' E 103°47'0 0.0
2018-May-26 04:57N 01°16' E 103°47'0 0.0
2018-May-26 04:27N 01°16' E 103°47'0 0.0
2018-May-26 04:00N 01°16' E 103°47'0 0.0
2018-May-26 03:30N 01°16' E 103°47'0 0.0
2018-May-26 03:00N 01°16' E 103°47'0 0.6
2018-May-26 02:30N 01°15' E 103°48'1 2.3
2018-May-26 02:00N 01°14' E 103°47'3 6.8
2018-May-26 01:30N 01°12' E 103°50'4 8.3
2018-May-26 01:00N 01°14' E 103°54'4 9.1
2018-May-26 00:30N 01°15' E 103°58'5 9.3
2018-May-26 00:00N 01°16' E 104°03'612.7
2018-May-25 23:30N 01°17' E 104°09'816.1
2018-May-25 22:59N 01°18' E 104°17'713.7
2018-May-25 22:29N 01°22' E 104°23'510.3
2018-May-25 22:00N 01°26' E 104°26'3 5.9
2018-May-25 21:30N 01°24' E 104°24'611.0
2018-May-25 21:00N 01°27' E 104°29'1015.1
2018-May-25 20:22N 01°35' E 104°34'715.2
2018-May-25 19:55N 01°41' E 104°37'  
2018-May-21 07:57N 22°48' E 116°50'1416.9
2018-May-21 07:06N 22°55' E 117°04'216.5
2018-May-21 07:00N 22°56' E 117°06'816.8
2018-May-21 06:30N 22°60' E 117°14'816.6
2018-May-21 06:00N 23°04' E 117°21'816.7
2018-May-21 05:30N 23°09' E 117°29'816.3
2018-May-21 05:00N 23°12' E 117°37'816.3
2018-May-21 04:30N 23°18' E 117°43'816.9
2018-May-21 04:00N 23°24' E 117°50'1019.1
2018-May-21 03:30N 23°30' E 117°58'1019.5
2018-May-21 03:00N 23°37' E 118°06'1019.7
2018-May-21 02:29N 23°44' E 118°14'1519.4
2018-May-21 01:42N 23°54' E 118°26'419.2
2018-May-21 01:30N 23°56' E 118°30'1019.4
2018-May-21 01:00N 24°03' E 118°37'1019.4
2018-May-21 00:30N 24°09' E 118°45'1019.7
2018-May-20 23:59N 24°16' E 118°53'920.1
2018-May-20 23:30N 24°22' E 119°01'1620.4
2018-May-20 22:43N 24°33' E 119°14'419.9
2018-May-20 22:30N 24°36' E 119°18'  
2018-May-17 18:35N 30°37' E 122°03'210.2
2018-May-17 18:25N 30°38' E 122°02'1 0.9
2018-May-17 17:08N 30°39' E 122°01'0 0.0
2018-May-17 16:59N 30°39' E 122°01'0 0.0
2018-May-17 16:29N 30°39' E 122°01'0 0.0
2018-May-17 15:53N 30°39' E 122°01'0 0.0
2018-May-17 15:29N 30°39' E 122°01'0 0.0
2018-May-17 14:59N 30°39' E 122°01'0 0.0
2018-May-17 14:23N 30°39' E 122°01'0 0.0
2018-May-17 13:56N 30°39' E 122°01'0 0.0
2018-May-17 13:23N 30°39' E 122°01'0 0.0
2018-May-17 12:53N 30°39' E 122°01'0 0.0
2018-May-17 11:38N 30°39' E 122°01'0 0.0
2018-May-17 11:29N 30°39' E 122°01'0 0.0
2018-May-17 10:56N 30°39' E 122°01'0 0.0
2018-May-17 10:23N 30°39' E 122°01'0 0.0
2018-May-17 09:53N 30°39' E 122°01'0 0.0
2018-May-17 09:29N 30°39' E 122°01'0 0.0
2018-May-17 08:50N 30°39' E 122°01'0 0.0
2018-May-17 07:11N 30°39' E 122°01'0 0.0
2018-May-17 06:59N 30°39' E 122°01'0 0.0
2018-May-17 06:08N 30°39' E 122°01'0 0.0
2018-May-17 05:53N 30°39' E 122°01'0 0.0
2018-May-17 05:30N 30°39' E 122°01'1 1.7
2018-May-17 05:00N 30°39' E 122°02'4 8.3
2018-May-17 04:28N 30°36' E 122°06'714.3
2018-May-17 04:00N 30°34' E 122°13'10811.7
2018-May-16 18:44N 31°10' E 124°12'410.2
2018-May-16 18:21N 31°13' E 124°15'410.6
2018-May-16 18:00N 31°15' E 124°18'  
Track history (hours):
 
Tides and Currents Weather Stations Pressure Air Temp Water Temp Dewpoint Dewpoint Depression Visibility Wind Speed Wind Dir Waves Ship Positions

APL New York

Last reported at 2018-May-26 14:00 UTC. Time now 2018-May-26 14:00 UTC.
Position N 01°16' E 103°47'.

Length 328 m; draft 13.1 m.

Type: Ship (hazmat cat A). MMSI: 566879000.

Date/timePositionNaut miles runAvg speedWind from/ knotsBaromVisibWave heightAir tempDewpointWater temp
2018-May-26 14:00N 01°16' E 103°47'0 0.0
2018-May-26 13:30N 01°16' E 103°47'0 0.0
2018-May-26 12:57N 01°16' E 103°47'0 0.0
2018-May-26 12:27N 01°16' E 103°47'0 0.0
2018-May-26 11:57N 01°16' E 103°47'0 0.0
2018-May-26 11:28N 01°16' E 103°47'0 0.0
2018-May-26 10:57N 01°16' E 103°47'0 0.0
2018-May-26 10:27N 01°16' E 103°47'0 0.0
2018-May-26 09:57N 01°16' E 103°47'0 0.0
2018-May-26 09:27N 01°16' E 103°47'0 0.0
2018-May-26 08:57N 01°16' E 103°47'0 0.0
2018-May-26 08:30N 01°16' E 103°47'0 0.0
2018-May-26 07:54N 01°16' E 103°47'0 0.0
2018-May-26 07:27N 01°16' E 103°47'0 0.0
2018-May-26 06:58N 01°16' E 103°47'0 0.0
2018-May-26 06:13N 01°16' E 103°47'0 0.0
2018-May-26 05:28N 01°16' E 103°47'0 0.0
2018-May-26 04:57N 01°16' E 103°47'0 0.0
2018-May-26 04:27N 01°16' E 103°47'0 0.0
2018-May-26 04:00N 01°16' E 103°47'0 0.0
2018-May-26 03:30N 01°16' E 103°47'0 0.0
2018-May-26 03:00N 01°16' E 103°47'0 0.6
2018-May-26 02:30N 01°15' E 103°48'1 2.3
2018-May-26 02:00N 01°14' E 103°47'3 6.8
2018-May-26 01:30N 01°12' E 103°50'4 8.3
2018-May-26 01:00N 01°14' E 103°54'4 9.1
2018-May-26 00:30N 01°15' E 103°58'5 9.3
2018-May-26 00:00N 01°16' E 104°03'612.7
2018-May-25 23:30N 01°17' E 104°09'816.1
2018-May-25 22:59N 01°18' E 104°17'713.7
2018-May-25 22:29N 01°22' E 104°23'510.3
2018-May-25 22:00N 01°26' E 104°26'3 5.9
2018-May-25 21:30N 01°24' E 104°24'611.0
2018-May-25 21:00N 01°27' E 104°29'1015.1
2018-May-25 20:22N 01°35' E 104°34'715.2
2018-May-25 19:55N 01°41' E 104°37'  
2018-May-21 07:57N 22°48' E 116°50'1416.9
2018-May-21 07:06N 22°55' E 117°04'216.5
2018-May-21 07:00N 22°56' E 117°06'816.8
2018-May-21 06:30N 22°60' E 117°14'816.6
2018-May-21 06:00N 23°04' E 117°21'816.7
2018-May-21 05:30N 23°09' E 117°29'816.3
2018-May-21 05:00N 23°12' E 117°37'816.3
2018-May-21 04:30N 23°18' E 117°43'816.9
2018-May-21 04:00N 23°24' E 117°50'1019.1
2018-May-21 03:30N 23°30' E 117°58'1019.5
2018-May-21 03:00N 23°37' E 118°06'1019.7
2018-May-21 02:29N 23°44' E 118°14'1519.4
2018-May-21 01:42N 23°54' E 118°26'419.2
2018-May-21 01:30N 23°56' E 118°30'1019.4
2018-May-21 01:00N 24°03' E 118°37'1019.4
2018-May-21 00:30N 24°09' E 118°45'1019.7
2018-May-20 23:59N 24°16' E 118°53'920.1
2018-May-20 23:30N 24°22' E 119°01'1620.4
2018-May-20 22:43N 24°33' E 119°14'419.9
2018-May-20 22:30N 24°36' E 119°18'  
2018-May-17 18:35N 30°37' E 122°03'210.2
2018-May-17 18:25N 30°38' E 122°02'1 0.9
2018-May-17 17:08N 30°39' E 122°01'0 0.0
2018-May-17 16:59N 30°39' E 122°01'0 0.0
2018-May-17 16:29N 30°39' E 122°01'0 0.0
2018-May-17 15:53N 30°39' E 122°01'0 0.0
2018-May-17 15:29N 30°39' E 122°01'0 0.0
2018-May-17 14:59N 30°39' E 122°01'0 0.0
2018-May-17 14:23N 30°39' E 122°01'0 0.0
2018-May-17 13:56N 30°39' E 122°01'0 0.0
2018-May-17 13:23N 30°39' E 122°01'0 0.0
2018-May-17 12:53N 30°39' E 122°01'0 0.0
2018-May-17 11:38N 30°39' E 122°01'0 0.0
2018-May-17 11:29N 30°39' E 122°01'0 0.0
2018-May-17 10:56N 30°39' E 122°01'0 0.0
2018-May-17 10:23N 30°39' E 122°01'0 0.0
2018-May-17 09:53N 30°39' E 122°01'0 0.0
2018-May-17 09:29N 30°39' E 122°01'0 0.0
2018-May-17 08:50N 30°39' E 122°01'0 0.0
2018-May-17 07:11N 30°39' E 122°01'0 0.0
2018-May-17 06:59N 30°39' E 122°01'0 0.0
2018-May-17 06:08N 30°39' E 122°01'0 0.0
2018-May-17 05:53N 30°39' E 122°01'0 0.0
2018-May-17 05:30N 30°39' E 122°01'1 1.7
2018-May-17 05:00N 30°39' E 122°02'4 8.3
2018-May-17 04:28N 30°36' E 122°06'714.3
2018-May-17 04:00N 30°34' E 122°13'10811.7
2018-May-16 18:44N 31°10' E 124°12'410.2
2018-May-16 18:21N 31°13' E 124°15'410.6
2018-May-16 18:00N 31°15' E 124°18'  

Dump ship's entire track history